Time;durP1;ratioP1;P1;durP2;ratioP2;P2;SDS_P1;SDS_P2;PMS_P1;PMS_P2;Temp;Humidity;BMP_temperature;BMP_pressure;BME280_temperature;BME280_humidity;BME280_pressure;Samples;Min_cycle;Max_cycle;Signal;HPM_P1;HPM_P2
2022/10/24 00:01:16;;;;;;;28.65;15.45;;;;;;;11.92;83.41;100106.52;2172142;81;29062;-57
2022/10/24 00:04:17;;;;;;;23.15;16.50;;;;;;;11.92;83.37;100101.99;2172034;81;31058;-58
2022/10/24 00:07:18;;;;;;;23.62;15.32;;;;;;;11.92;83.37;100119.44;2186812;81;33330;-58
2022/10/24 00:10:20;;;;;;;26.17;16.45;;;;;;;11.94;83.35;100122.91;2190424;81;29340;-57
2022/10/24 00:13:21;;;;;;;24.65;16.80;;;;;;;11.95;83.31;100130.50;2190640;81;28224;-58
2022/10/24 00:16:23;;;;;;;26.27;15.65;;;;;;;11.93;83.29;100138.63;2190492;81;29035;-58
2022/10/24 00:19:24;;;;;;;23.75;15.53;;;;;;;11.94;83.29;100132.30;2190296;80;31228;-58
2022/10/24 00:22:26;;;;;;;24.45;16.48;;;;;;;11.96;83.33;100139.80;2189858;81;35178;-58
2022/10/24 00:25:28;;;;;;;29.10;16.23;;;;;;;11.97;83.34;100165.69;2190103;81;30258;-58
2022/10/24 00:28:33;;;;;;;24.37;16.02;;;;;;;11.98;83.38;100162.08;2190143;81;28319;-57
2022/10/24 00:31:35;;;;;;;23.52;15.83;;;;;;;12.02;83.39;100165.45;2190503;81;28650;-58
2022/10/24 00:34:37;;;;;;;21.20;15.03;;;;;;;12.02;83.32;100167.28;2189961;81;32339;-60
2022/10/24 00:37:38;;;;;;;22.27;16.02;;;;;;;12.03;83.28;100157.78;2137046;83;32974;-57
2022/10/24 00:40:40;;;;;;;24.35;14.73;;;;;;;12.02;83.26;100147.99;2137060;83;29696;-57
2022/10/24 00:43:42;;;;;;;22.45;15.85;;;;;;;12.04;83.30;100147.92;2137142;83;28432;-57
2022/10/24 00:47:07;;;;;;;28.05;15.05;;;;;;;12.03;83.28;100140.33;2136945;83;29154;-58
2022/10/24 00:50:12;;;;;;;22.42;15.72;;;;;;;12.05;83.33;100149.16;2136877;83;31433;-60
2022/10/24 00:53:14;;;;;;;26.95;16.35;;;;;;;12.07;83.37;100135.67;2136583;83;33722;-57
2022/10/24 00:56:19;;;;;;;25.30;15.88;;;;;;;12.08;83.40;100126.66;2136469;83;30215;-57
2022/10/24 00:59:20;;;;;;;20.70;15.50;;;;;;;12.09;83.48;100125.22;2137034;83;27736;-58
2022/10/24 01:02:22;;;;;;;22.15;15.03;;;;;;;12.11;83.56;100118.40;2136919;83;28642;-57
2022/10/24 01:05:27;;;;;;;23.27;15.95;;;;;;;12.12;83.53;100102.67;2146214;81;32197;-57
2022/10/24 01:08:54;;;;;;;22.25;15.90;;;;;;;12.12;83.54;100091.94;2171010;81;33781;-58
2022/10/24 01:12:13;;;;;;;22.85;16.23;;;;;;;12.13;83.53;100093.20;2171724;82;30492;-58
2022/10/24 01:15:37;;;;;;;20.27;14.70;;;;;;;12.15;83.69;100088.61;2167645;82;27586;-58
2022/10/24 01:18:58;;;;;;;21.70;15.72;;;;;;;12.16;83.60;100094.34;2143969;83;28180;-60
2022/10/24 01:22:09;;;;;;;17.82;14.00;;;;;;;12.13;83.55;100085.15;2145583;82;31407;-58
2022/10/24 01:25:31;;;;;;;25.65;14.75;;;;;;;12.12;83.60;100078.05;2146662;82;33385;-58
2022/10/24 01:29:08;;;;;;;22.35;14.40;;;;;;;12.11;83.60;100078.12;2146327;82;29789;-58
2022/10/24 01:32:40;;;;;;;20.62;14.95;;;;;;;12.07;83.61;100070.73;2146566;82;27591;-58
2022/10/24 01:35:58;;;;;;;23.67;15.03;;;;;;;12.04;83.62;100066.88;2147418;82;29857;-58
2022/10/24 01:39:03;;;;;;;26.02;15.20;;;;;;;12.04;83.69;100053.95;2148706;82;31396;-59
2022/10/24 01:42:06;;;;;;;20.20;14.30;;;;;;;12.03;83.73;100041.48;2148602;82;34275;-59
2022/10/24 01:45:12;;;;;;;23.40;14.15;;;;;;;12.02;83.72;100036.58;2148615;82;30143;-59
2022/10/24 01:48:18;;;;;;;23.40;14.95;;;;;;;12.02;83.78;100036.58;2148841;82;27697;-58
2022/10/24 01:51:21;;;;;;;17.32;13.62;;;;;;;12.00;83.78;100023.25;2148730;82;28654;-58
2022/10/24 01:54:23;;;;;;;18.48;14.45;;;;;;;12.02;83.79;100023.64;2148727;82;32200;-58
2022/10/24 01:57:29;;;;;;;16.93;13.60;;;;;;;12.00;83.72;100018.34;2147589;82;32776;-58
2022/10/24 02:00:30;;;;;;;26.75;14.18;;;;;;;12.00;83.78;100012.52;2146896;82;29672;-58
2022/10/24 02:03:49;;;;;;;22.17;15.40;;;;;;;11.99;83.72;100014.81;2147104;82;27618;-58
2022/10/24 02:06:51;;;;;;;20.52;13.18;;;;;;;11.98;83.74;100002.80;2111498;84;29046;-58
2022/10/24 02:09:57;;;;;;;18.30;13.85;;;;;;;11.96;83.75;100005.56;2112262;84;32180;-58
2022/10/24 02:13:06;;;;;;;19.32;13.70;;;;;;;11.97;83.80;100004.61;2137038;83;33756;-57
2022/10/24 02:16:09;;;;;;;19.67;13.35;;;;;;;11.98;83.89;100012.20;2112403;84;29381;-57
2022/10/24 02:19:12;;;;;;;23.12;13.60;;;;;;;11.98;83.86;100008.17;2137043;83;27746;-58
2022/10/24 02:22:34;;;;;;;19.02;14.13;;;;;;;11.97;84.16;100012.66;2125559;82;29444;-57
2022/10/24 02:25:38;;;;;;;19.23;14.18;;;;;;;11.98;83.87;100033.68;2133802;83;31629;-58
2022/10/24 02:28:43;;;;;;;19.25;13.83;;;;;;;11.98;83.88;100038.59;2134410;83;32966;-58
2022/10/24 02:31:50;;;;;;;19.95;14.10;;;;;;;11.96;83.82;100033.75;2122403;83;29678;-58
2022/10/24 02:34:51;;;;;;;17.87;12.88;;;;;;;11.93;83.73;100025.88;2134335;83;27661;-57
2022/10/24 02:37:58;;;;;;;20.23;13.72;;;;;;;11.91;83.79;100026.47;2121959;83;28711;-58
2022/10/24 02:41:02;;;;;;;18.77;12.95;;;;;;;11.88;83.76;100022.63;2134415;83;31041;-58
2022/10/24 02:44:05;;;;;;;16.82;12.65;;;;;;;11.85;83.74;100030.36;2123368;83;32981;-57
2022/10/24 02:47:09;;;;;;;21.87;13.32;;;;;;;11.82;83.74;100025.20;2154131;82;29398;-58
2022/10/24 02:50:12;;;;;;;19.70;12.55;;;;;;;11.79;83.81;100024.50;2123269;83;27595;-59
2022/10/24 02:53:19;;;;;;;17.80;11.83;;;;;;;11.77;83.84;100020.57;2154764;82;29914;-57
2022/10/24 02:56:21;;;;;;;14.73;11.10;;;;;;;11.76;83.88;100021.98;2157757;82;31404;-57
2022/10/24 02:59:22;;;;;;;15.88;11.57;;;;;;;11.75;83.95;100031.88;2157314;82;34202;-69
2022/10/24 03:02:24;;;;;;;17.00;11.75;;;;;;;11.75;84.01;100036.39;2157844;82;30471;-71
2022/10/24 03:05:25;;;;;;;17.05;12.05;;;;;;;11.73;84.05;100021.70;2157605;82;27741;-58
2022/10/24 03:08:26;;;;;;;13.65;10.88;;;;;;;11.73;84.03;100020.85;2157956;82;29916;-57
2022/10/24 03:11:28;;;;;;;16.35;12.03;;;;;;;11.71;84.02;100026.29;2157746;82;32183;-58
2022/10/24 03:14:29;;;;;;;13.38;10.55;;;;;;;11.71;84.01;100035.69;2157894;82;33327;-65
2022/10/24 03:17:31;;;;;;;14.30;10.70;;;;;;;11.69;84.00;100034.91;2119177;84;29392;-58
2022/10/24 03:20:32;;;;;;;12.68;9.95;;;;;;;11.67;83.99;100027.42;2157717;81;27688;-69
2022/10/24 03:23:34;;;;;;;15.72;10.18;;;;;;;11.64;83.95;100026.28;2114925;83;29101;-63
2022/10/24 03:26:36;;;;;;;12.43;9.70;;;;;;;11.61;83.97;100021.09;2137107;82;31251;-59
2022/10/24 03:29:37;;;;;;;11.95;10.08;;;;;;;11.58;83.94;100007.84;2151926;82;33382;-57
2022/10/24 03:32:38;;;;;;;16.25;11.03;;;;;;;11.55;83.93;100009.75;2151924;82;29700;-56
2022/10/24 03:35:40;;;;;;;14.53;10.40;;;;;;;11.53;83.94;100002.76;2151922;82;27661;-58
2022/10/24 03:38:41;;;;;;;11.85;9.38;;;;;;;11.51;83.97;100011.37;2151678;82;28649;-57
2022/10/24 03:41:43;;;;;;;14.47;10.28;;;;;;;11.49;84.06;100008.79;2152140;82;31345;-71
2022/10/24 03:44:44;;;;;;;12.82;9.68;;;;;;;11.47;84.04;100009.35;2151730;82;33161;-58
2022/10/24 03:47:46;;;;;;;12.23;9.50;;;;;;;11.46;84.06;100006.28;2151434;82;30570;-69
2022/10/24 03:50:49;;;;;;;13.72;10.60;;;;;;;11.44;84.07;100004.16;2151523;82;27610;-58
2022/10/24 03:53:51;;;;;;;12.98;10.70;;;;;;;11.43;84.20;99989.48;2149848;82;28685;-57
2022/10/24 03:56:52;;;;;;;17.10;10.65;;;;;;;11.43;84.28;99992.16;2149581;82;32328;-71
2022/10/24 03:59:53;;;;;;;15.30;10.63;;;;;;;11.42;84.32;100010.09;2140368;83;33330;-70
2022/10/24 04:02:55;;;;;;;14.07;10.43;;;;;;;11.42;84.35;100009.23;2117583;84;29376;-71
2022/10/24 04:05:56;;;;;;;13.72;10.40;;;;;;;11.41;84.43;100008.35;2178409;81;27680;-57
2022/10/24 04:08:58;;;;;;;14.18;10.43;;;;;;;11.41;84.47;99994.95;2178043;81;29093;-57
2022/10/24 04:12:00;;;;;;;14.07;11.33;;;;;;;11.42;84.57;99985.95;2178059;81;31085;-72
2022/10/24 04:15:02;;;;;;;13.72;11.15;;;;;;;11.44;84.68;99994.77;2178347;81;32961;-68
2022/10/24 04:18:03;;;;;;;14.38;10.93;;;;;;;11.46;84.83;99994.20;2178540;81;29699;-69
2022/10/24 04:21:05;;;;;;;14.95;11.05;;;;;;;11.48;84.87;99993.64;2178191;81;27774;-58
2022/10/24 04:24:07;;;;;;;13.93;12.40;;;;;;;11.51;84.89;99997.47;2177955;81;28778;-71
2022/10/24 04:27:11;;;;;;;16.32;11.65;;;;;;;11.53;84.94;100007.63;2149414;82;31255;-71
2022/10/24 04:30:14;;;;;;;15.00;12.37;;;;;;;11.57;84.95;100002.09;2149942;82;33407;-57
2022/10/24 04:33:16;;;;;;;17.30;13.25;;;;;;;11.59;84.95;100002.87;2140126;83;29325;-57
2022/10/24 04:36:18;;;;;;;25.00;17.65;;;;;;;11.60;84.91;100006.80;2118255;84;27631;-57
2022/10/24 04:39:19;;;;;;;25.95;18.00;;;;;;;11.61;84.94;100011.70;2178299;81;29839;-58
2022/10/24 04:42:22;;;;;;;26.87;19.55;;;;;;;11.62;84.92;100012.09;2178106;81;31017;-60
2022/10/24 04:45:23;;;;;;;22.93;17.92;;;;;;;11.62;84.92;100013.43;2178132;81;32444;-58
2022/10/24 04:48:24;;;;;;;23.27;18.15;;;;;;;11.61;84.91;100015.23;2177999;81;30543;-69
2022/10/24 04:51:26;;;;;;;24.92;17.25;;;;;;;11.62;84.90;100004.89;2179186;81;27707;-59
2022/10/24 04:54:28;;;;;;;21.25;16.40;;;;;;;11.63;84.95;100009.30;2180291;81;28709;-68
2022/10/24 04:57:29;;;;;;;24.00;15.08;;;;;;;11.64;84.90;100022.26;2180324;81;31397;-70
2022/10/24 05:00:31;;;;;;;19.17;14.80;;;;;;;11.63;84.88;100021.38;2180069;81;33717;-68
2022/10/24 05:03:32;;;;;;;18.62;14.40;;;;;;;11.63;84.81;100023.20;2151712;82;29698;-67
2022/10/24 05:06:33;;;;;;;16.48;13.78;;;;;;;11.63;84.80;100024.55;2151697;82;28234;-57
2022/10/24 05:09:35;;;;;;;17.70;14.20;;;;;;;11.60;84.74;100026.91;2151550;82;29886;-58
2022/10/24 05:12:36;;;;;;;19.65;14.65;;;;;;;11.60;84.74;100028.26;2152186;82;31452;-57
2022/10/24 05:15:38;;;;;;;20.43;14.60;;;;;;;11.59;84.69;100040.43;2151400;82;34409;-57
2022/10/24 05:18:39;;;;;;;21.35;15.20;;;;;;;11.58;84.73;100032.88;2151771;82;29084;-57
2022/10/24 05:21:41;;;;;;;19.48;14.58;;;;;;;11.56;84.70;100034.78;2149840;81;27643;-57
2022/10/24 05:24:46;;;;;;;15.48;13.38;;;;;;;11.55;84.71;100025.84;2119838;83;28667;-57
2022/10/24 05:27:48;;;;;;;17.57;14.07;;;;;;;11.53;84.67;100025.06;2144739;83;31704;-57
2022/10/24 05:30:49;;;;;;;17.65;13.85;;;;;;;11.53;84.78;100024.22;2119704;83;34124;-57
2022/10/24 05:33:51;;;;;;;17.07;13.35;;;;;;;11.53;84.74;100028.25;2082818;84;30536;-57
2022/10/24 05:36:52;;;;;;;18.70;13.22;;;;;;;11.52;84.77;100019.31;2044974;87;28060;-57
2022/10/24 05:39:53;;;;;;;18.12;12.82;;;;;;;11.52;84.75;100027.85;2044536;87;28788;-58
2022/10/24 05:42:55;;;;;;;18.52;13.40;;;;;;;11.52;84.75;100027.85;2044896;86;31408;-66
2022/10/24 05:45:58;;;;;;;23.05;13.45;;;;;;;11.50;84.79;100024.39;2044759;87;33400;-60
2022/10/24 05:48:59;;;;;;;21.85;16.62;;;;;;;11.48;84.77;100025.84;2062404;85;29386;-62
2022/10/24 05:52:01;;;;;;;25.37;18.23;;;;;;;11.47;84.75;100034.84;2080596;85;27614;-61
2022/10/24 05:55:05;;;;;;;24.40;17.27;;;;;;;11.46;84.78;100038.47;2080323;84;29688;-55
2022/10/24 05:58:07;;;;;;;23.15;17.37;;;;;;;11.46;84.72;100038.47;2080702;85;31022;-57
2022/10/24 06:01:08;;;;;;;22.75;16.77;;;;;;;11.46;84.77;100037.59;2104320;84;33779;-56
2022/10/24 06:04:10;;;;;;;22.40;17.23;;;;;;;11.46;84.79;100038.47;2082380;85;29681;-59
2022/10/24 06:07:12;;;;;;;24.32;17.55;;;;;;;11.46;84.79;100042.49;2080790;85;27548;-56
2022/10/24 06:10:14;;;;;;;25.20;17.60;;;;;;;11.50;84.89;100052.56;2104575;84;29808;-58
2022/10/24 06:13:17;;;;;;;21.52;16.37;;;;;;;11.52;84.92;100047.48;2082369;85;32141;-59
2022/10/24 06:16:19;;;;;;;20.97;16.27;;;;;;;11.56;84.99;100045.52;2080347;85;33709;-68
2022/10/24 06:19:20;;;;;;;22.60;15.85;;;;;;;11.61;85.04;100046.08;2105534;84;30196;-56
2022/10/24 06:22:28;;;;;;;22.22;16.80;;;;;;;11.66;85.15;100052.06;2124916;81;27649;-58
2022/10/24 06:25:25;;;;;;;24.35;16.97;;;;;;;11.72;85.19;100040.09;2159029;81;29132;-66
2022/10/24 06:28:27;;;;;;;22.13;15.88;;;;;;;11.78;85.23;100042.43;2160506;81;32203;-58
2022/10/24 06:31:28;;;;;;;22.02;15.88;;;;;;;11.84;85.30;100045.23;2160129;81;34305;-61
2022/10/24 06:34:30;;;;;;;21.70;16.52;;;;;;;11.89;85.30;100052.54;2160299;82;28815;-61
2022/10/24 06:37:32;;;;;;;24.02;16.50;;;;;;;11.94;85.34;100049.58;2160602;81;27640;-57
2022/10/24 06:40:36;;;;;;;20.37;15.83;;;;;;;12.00;85.38;100054.13;2160508;81;29061;-62
2022/10/24 06:43:38;;;;;;;20.70;14.68;;;;;;;12.05;85.38;100055.19;2160389;81;32186;-56
2022/10/24 06:46:39;;;;;;;15.95;10.28;;;;;;;12.11;85.46;100067.37;2160001;82;34257;-56
2022/10/24 06:49:41;;;;;;;16.20;9.78;;;;;;;12.16;85.59;100066.14;2159063;81;29335;-56
2022/10/24 06:52:42;;;;;;;12.82;9.70;;;;;;;12.23;85.75;100065.33;2158950;81;27653;-56
2022/10/24 06:55:44;;;;;;;15.72;9.60;;;;;;;12.35;85.89;100053.44;2158445;81;29921;-61
2022/10/24 06:58:45;;;;;;;10.08;8.70;;;;;;;12.44;85.98;100045.67;2159079;82;31065;-57
2022/10/24 07:01:46;;;;;;;12.20;9.08;;;;;;;12.57;86.06;100050.28;2158685;82;34182;-59
2022/10/24 07:04:48;;;;;;;14.28;8.30;;;;;;;12.70;86.17;100050.39;2158377;82;30516;-57
2022/10/24 07:07:49;;;;;;;15.10;8.58;;;;;;;12.82;86.20;100048.27;2158802;81;28275;-57
2022/10/24 07:10:51;;;;;;;15.95;8.05;;;;;;;12.95;86.22;100052.39;2158643;81;29829;-56
2022/10/24 07:13:52;;;;;;;12.20;8.10;;;;;;;13.07;86.26;100044.88;2158725;82;32207;-55
2022/10/24 07:16:54;;;;;;;13.35;8.40;;;;;;;13.21;86.25;100049.38;2143880;82;33341;-56
2022/10/24 07:19:56;;;;;;;14.40;8.60;;;;;;;13.35;86.29;100054.34;2160395;81;29703;-56
2022/10/24 07:22:57;;;;;;;14.20;8.40;;;;;;;13.48;86.31;100055.28;2166698;81;27490;-58
2022/10/24 07:26:05;;;;;;;14.53;7.30;;;;;;;13.62;86.34;100055.73;2180144;81;30103;-58
2022/10/24 07:29:06;;;;;;;16.73;8.05;;;;;;;13.76;86.37;100050.75;2160532;82;31911;-59
2022/10/24 07:32:07;;;;;;;10.40;7.20;;;;;;;13.93;86.35;100052.78;2189854;81;33381;-57
2022/10/24 07:35:12;;;;;;;12.35;7.37;;;;;;;13.95;86.30;100032.00;2189687;81;30158;-55
2022/10/24 07:38:13;;;;;;;11.63;7.40;;;;;;;14.23;86.35;100056.56;2190122;80;27643;-56
2022/10/24 07:41:15;;;;;;;11.65;7.17;;;;;;;14.40;86.15;100051.84;2189920;80;29816;-55
2022/10/24 07:44:16;;;;;;;9.65;6.97;;;;;;;14.56;86.16;100052.98;2189534;81;30818;-58
2022/10/24 07:47:17;;;;;;;14.50;6.80;;;;;;;14.91;86.07;100059.56;2189467;80;33553;-65
2022/10/24 07:50:19;;;;;;;11.97;6.90;;;;;;;14.91;86.07;100059.56;2188846;80;29725;-60
2022/10/24 07:53:20;;;;;;;6.45;5.37;;;;;;;15.10;85.86;100067.17;2189784;80;27667;-61
2022/10/24 07:56:21;;;;;;;11.55;6.00;;;;;;;15.28;85.64;100063.14;2190021;80;29442;-62
2022/10/24 07:59:24;;;;;;;9.20;5.80;;;;;;;15.44;85.44;100064.70;2166949;80;27688;-61
2022/10/24 08:02:26;;;;;;;12.35;6.40;;;;;;;15.59;84.96;100062.22;2189511;81;33333;-63
2022/10/24 08:05:27;;;;;;;10.82;6.47;;;;;;;15.76;84.91;100060.09;2189630;81;29391;-59
2022/10/24 08:08:29;;;;;;;10.80;5.12;;;;;;;15.92;84.62;100053.92;2189324;80;27696;-60
2022/10/24 08:11:31;;;;;;;9.93;6.20;;;;;;;16.09;84.49;100052.66;2189667;80;29175;-58
2022/10/24 08:14:33;;;;;;;8.43;5.12;;;;;;;16.25;84.25;100056.36;2189849;80;31857;-59
2022/10/24 08:17:35;;;;;;;6.37;4.75;;;;;;;16.44;84.15;100059.49;2188932;80;33007;-59
2022/10/24 08:20:37;;;;;;;7.50;4.37;;;;;;;16.55;83.75;100056.30;2160186;82;29941;-59
2022/10/24 08:23:43;;;;;;;9.13;4.37;;;;;;;16.68;83.11;100062.11;2189093;80;27704;-59
2022/10/24 08:26:45;;;;;;;8.83;4.72;;;;;;;16.76;82.81;100056.09;2190737;80;28709;-63
2022/10/24 08:29:47;;;;;;;9.00;4.42;;;;;;;16.85;82.22;100061.63;2159894;82;31050;-62
2022/10/24 08:32:49;;;;;;;7.20;4.60;;;;;;;16.94;82.34;100056.44;2189685;80;34164;-58
2022/10/24 08:35:52;;;;;;;10.20;4.42;;;;;;;17.02;82.02;100056.73;2190048;80;29758;-60
2022/10/24 08:38:55;;;;;;;9.18;4.45;;;;;;;17.12;81.44;100050.08;2190346;80;27663;-60
2022/10/24 08:42:04;;;;;;;10.55;4.33;;;;;;;17.23;81.60;100046.47;2189271;79;29495;-61
2022/10/24 08:45:20;;;;;;;5.62;4.35;;;;;;;17.38;81.63;100044.37;2182530;80;31027;-60
2022/10/24 08:48:28;;;;;;;7.90;4.12;;;;;;;17.51;81.31;100042.36;2189659;79;33797;-59
2022/10/24 08:51:44;;;;;;;4.62;3.35;;;;;;;17.66;80.62;100044.77;2186344;80;29972;-60
2022/10/24 08:54:46;;;;;;;9.13;3.80;;;;;;;17.76;80.41;100045.23;2196091;80;27651;-60
2022/10/24 08:57:52;;;;;;;5.65;4.03;;;;;;;17.88;80.34;100056.89;2190371;80;30744;-60
2022/10/24 09:00:58;;;;;;;5.75;3.12;;;;;;;17.98;79.95;100048.88;2179198;80;30995;-59
2022/10/24 09:04:04;;;;;;;11.25;4.72;;;;;;;18.09;79.73;100055.22;2170166;79;33785;-59
2022/10/24 09:07:10;;;;;;;11.18;3.95;;;;;;;18.20;79.17;100056.02;2186491;80;29390;-59
2022/10/24 09:10:44;;;;;;;4.50;3.12;;;;;;;18.35;79.09;100052.98;2184566;80;27710;-58
2022/10/24 09:13:46;;;;;;;6.00;3.55;;;;;;;18.53;79.31;100055.96;2188965;80;28681;-59
2022/10/24 09:17:01;;;;;;;6.20;3.70;;;;;;;18.78;78.80;100055.98;2190257;80;30633;-60
2022/10/24 09:20:24;;;;;;;4.90;3.33;;;;;;;19.01;78.20;100051.77;2165494;80;32959;-60
2022/10/24 09:23:26;;;;;;;7.47;3.87;;;;;;;19.24;77.96;100054.29;2190832;79;29437;-59
2022/10/24 09:26:29;;;;;;;4.25;3.02;;;;;;;19.44;77.53;100058.75;2192261;80;27735;-59
2022/10/24 09:29:32;;;;;;;5.85;3.45;;;;;;;19.57;76.01;100051.70;2192425;80;28906;-60
2022/10/24 09:32:35;;;;;;;4.70;3.00;;;;;;;19.68;76.13;100056.16;2159265;82;32482;-60
2022/10/24 09:35:37;;;;;;;9.03;3.98;;;;;;;19.79;75.83;100051.08;2150451;82;32949;-60
2022/10/24 09:38:40;;;;;;;7.50;3.15;;;;;;;19.87;75.51;100048.53;2142492;82;29331;-60
2022/10/24 09:41:45;;;;;;;7.28;3.20;;;;;;;19.95;75.15;100051.89;2159821;81;27689;-59
2022/10/24 09:44:46;;;;;;;5.70;3.00;;;;;;;20.02;75.00;100053.56;2159896;82;29099;-59
2022/10/24 09:47:55;;;;;;;6.65;2.95;;;;;;;20.08;74.73;100055.69;2142096;82;32190;-59
2022/10/24 09:50:58;;;;;;;3.72;2.70;;;;;;;20.14;73.98;100062.41;2150238;81;32754;-58
2022/10/24 09:54:22;;;;;;;4.08;2.70;;;;;;;20.18;73.94;100061.13;2159574;82;29756;-59
2022/10/24 09:57:24;;;;;;;6.72;2.95;;;;;;;20.22;73.27;100053.52;2159807;81;27641;-58
2022/10/24 10:00:32;;;;;;;5.78;2.45;;;;;;;20.25;72.89;100057.31;2159209;82;30066;-59
2022/10/24 10:03:34;;;;;;;6.47;2.72;;;;;;;20.32;72.85;100054.38;2159383;82;31725;-58
2022/10/24 10:06:43;;;;;;;9.40;2.62;;;;;;;20.36;71.84;100046.27;2159737;81;33263;-59
2022/10/24 10:09:55;;;;;;;5.70;2.25;;;;;;;20.38;71.93;100046.98;2159731;81;29412;-61
2022/10/24 10:13:22;;;;;;;6.95;2.60;;;;;;;20.41;71.87;100041.25;2158638;82;27704;-61
2022/10/24 10:16:33;;;;;;;4.35;2.08;;;;;;;20.46;71.28;100038.95;2159616;82;29558;-60
2022/10/24 10:19:36;;;;;;;6.70;2.30;;;;;;;20.48;70.62;100030.63;2158570;81;31052;-59
2022/10/24 10:22:39;;;;;;;7.47;3.05;;;;;;;20.48;70.28;100026.55;2158820;81;32951;-60
2022/10/24 10:25:40;;;;;;;8.08;2.33;;;;;;;20.52;70.28;100029.86;2176475;81;29377;-60
2022/10/24 10:28:53;;;;;;;5.67;2.72;;;;;;;20.50;70.06;100017.74;2151232;82;28493;-61
2022/10/24 10:32:24;;;;;;;6.85;2.95;;;;;;;20.53;69.80;100022.02;2142720;82;28649;-60
2022/10/24 10:35:43;;;;;;;10.63;3.70;;;;;;;20.52;69.38;100019.81;2145864;82;30503;-60
2022/10/24 10:39:24;;;;;;;5.70;2.50;;;;;;;20.52;69.50;100027.14;2147491;82;33388;-61
2022/10/24 10:42:37;;;;;;;6.90;2.77;;;;;;;20.50;68.97;100019.10;2132169;82;31558;-61
2022/10/24 10:46:02;;;;;;;5.05;2.52;;;;;;;20.51;69.03;100018.09;2151115;82;27689;-73
2022/10/24 10:49:28;;;;;;;6.40;3.00;;;;;;;20.57;68.87;100020.23;2150884;82;28067;-66
2022/10/24 10:52:41;;;;;;;4.10;2.70;;;;;;;20.62;69.01;100020.63;2145832;82;32271;-61
2022/10/24 10:56:00;;;;;;;4.90;2.55;;;;;;;20.69;68.95;100021.41;2147923;82;33107;-67
2022/10/24 10:59:24;;;;;;;6.30;2.75;;;;;;;20.72;68.56;100013.80;2145907;81;29496;-66
2022/10/24 11:02:56;;;;;;;5.85;3.08;;;;;;;20.79;68.42;100013.59;2151205;82;27705;-70
2022/10/24 11:06:18;;;;;;;8.30;3.65;;;;;;;20.84;68.37;100010.94;2147721;81;28702;-61
2022/10/24 11:09:46;;;;;;;4.15;2.37;;;;;;;20.89;67.90;100009.95;2150767;82;31600;-68
2022/10/24 11:12:48;;;;;;;6.55;2.60;;;;;;;20.92;67.53;100005.58;2151052;82;34454;-61
2022/10/24 11:15:54;;;;;;;7.78;2.72;;;;;;;20.92;67.47;100001.00;2151226;82;29798;-67
2022/10/24 11:19:00;;;;;;;9.60;3.25;;;;;;;20.98;67.71;100012.28;2150684;82;27694;-61
2022/10/24 11:22:04;;;;;;;10.63;3.20;;;;;;;21.01;67.20;100004.69;2140558;81;28772;-68
2022/10/24 11:25:20;;;;;;;8.20;2.87;;;;;;;21.07;67.01;100007.30;2147277;80;30403;-69
2022/10/24 11:28:27;;;;;;;4.28;2.52;;;;;;;21.11;67.33;100003.24;2075108;85;33035;-68
2022/10/24 11:31:39;;;;;;;8.73;3.15;;;;;;;21.13;66.77;99992.21;2144432;82;29937;-63
2022/10/24 11:35:11;;;;;;;7.92;3.12;;;;;;;21.10;66.83;99990.14;2144310;82;27676;-61
2022/10/24 11:38:22;;;;;;;9.45;2.87;;;;;;;21.08;66.06;99985.87;2082166;84;28748;-65
2022/10/24 11:41:47;;;;;;;7.37;3.05;;;;;;;21.06;66.36;99986.52;2144547;81;30952;-64
2022/10/24 11:44:52;;;;;;;;;;;;;;;21.05;66.07;99985.65;2146981;82;33733;-67
2022/10/24 11:48:12;;;;;;;11.63;3.47;;;;;;;21.06;66.24;99981.07;2147909;82;31468;-62
2022/10/24 11:51:31;;;;;;;7.87;3.17;;;;;;;21.04;65.84;99983.93;2075704;85;27778;-67
2022/10/24 11:54:59;;;;;;;10.85;2.92;;;;;;;21.04;65.82;99981.20;2082123;85;29908;-66
2022/10/24 11:58:01;;;;;;;7.80;3.30;;;;;;;21.03;65.88;99971.32;2000065;88;33169;-68
2022/10/24 12:01:31;;;;;;;7.78;2.37;;;;;;;21.03;65.37;99976.77;2070237;85;34222;-68
2022/10/24 12:04:47;;;;;;;6.55;3.10;;;;;;;21.03;65.40;99983.58;2057116;86;30550;-61
2022/10/24 12:08:21;;;;;;;7.10;2.75;;;;;;;21.07;65.57;99981.42;2066095;86;27730;-64
2022/10/24 12:11:46;;;;;;;9.48;3.58;;;;;;;21.09;65.03;99968.52;2067678;86;28666;-66
2022/10/24 12:15:03;;;;;;;;;;;;;;;21.11;65.23;99966.47;2069833;86;32268;-60
2022/10/24 12:18:13;;;;;;;10.03;3.17;;;;;;;21.11;65.09;99966.47;2069864;85;33411;-60
2022/10/24 12:21:22;;;;;;;6.85;2.77;;;;;;;21.12;65.20;99961.38;2049698;85;29345;-66
2022/10/24 12:24:32;;;;;;;9.95;3.30;;;;;;;21.16;64.85;99949.69;2078875;84;27758;-67
2022/10/24 12:27:39;;;;;;;6.45;3.22;;;;;;;21.20;64.72;99944.26;2125038;82;28682;-67
2022/10/24 12:30:41;;;;;;;8.38;3.08;;;;;;;21.27;64.88;99944.01;2171968;82;31135;-67
2022/10/24 12:33:45;;;;;;;13.80;3.40;;;;;;;21.33;64.57;99947.48;2171605;81;33472;-62
2022/10/24 12:37:19;;;;;;;10.10;3.02;;;;;;;21.38;64.69;99951.94;2173950;81;29336;-64
2022/10/24 12:40:54;;;;;;;4.85;2.67;;;;;;;21.42;64.08;99946.19;2172382;80;27673;-60
2022/10/24 12:44:24;;;;;;;11.90;4.50;;;;;;;21.47;64.39;99943.34;2173599;81;29176;-65
2022/10/24 12:47:33;;;;;;;9.68;4.00;;;;;;;21.54;64.08;99940.84;2168824;81;32243;-66
2022/10/24 12:50:43;;;;;;;10.50;3.33;;;;;;;21.59;63.78;99941.23;2173754;81;32967;-60
2022/10/24 12:54:04;;;;;;;8.73;3.17;;;;;;;;;;2173571;81;30550;-61
2022/10/24 12:57:17;;;;;;;8.95;3.40;;;;;;;21.60;63.78;99918.91;2173598;81;27656;-60
2022/10/24 13:00:25;;;;;;;12.45;3.15;;;;;;;;;;2173194;81;30081;-62
2022/10/24 13:03:53;;;;;;;13.85;2.87;;;;;;;21.63;63.51;99922.23;2173100;80;31012;-61
2022/10/24 13:07:14;;;;;;;7.20;3.42;;;;;;;21.60;63.05;99914.36;2068299;84;32982;-64
2022/10/24 13:11:00;;;;;;;6.50;3.33;;;;;;;21.58;62.82;99912.27;2002432;87;30514;-63
2022/10/24 13:14:16;;;;;;;12.70;4.03;;;;;;;21.51;63.00;99902.50;1991443;88;27845;-68
2022/10/24 13:17:32;;;;;;;11.83;3.75;;;;;;;21.46;62.78;99906.72;1993368;88;29084;-63
2022/10/24 13:20:39;;;;;;;8.80;3.85;;;;;;;21.40;62.75;99905.48;1993343;88;32297;-60
2022/10/24 13:23:44;;;;;;;13.55;3.98;;;;;;;21.35;62.91;99915.98;1993260;88;33634;-63
2022/10/24 13:26:52;;;;;;;8.45;3.55;;;;;;;21.33;63.00;99916.64;1981917;88;29339;-66
2022/10/24 13:30:01;;;;;;;8.10;3.87;;;;;;;21.29;62.93;99925.64;1979470;87;28084;-63
2022/10/24 13:33:35;;;;;;;10.63;4.58;;;;;;;21.20;63.04;99930.15;2008902;87;28897;-69
2022/10/24 13:36:38;;;;;;;12.98;4.70;;;;;;;21.12;62.98;99933.30;2005403;88;31440;-63
2022/10/24 13:39:57;;;;;;;9.68;3.90;;;;;;;21.01;62.89;99933.00;2005940;88;32993;-66
2022/10/24 13:43:18;;;;;;;11.50;3.45;;;;;;;20.91;62.67;99927.61;2027015;85;30184;-68
2022/10/24 13:46:48;;;;;;;7.75;3.77;;;;;;;20.80;63.06;99936.84;2154609;82;27699;-63
2022/10/24 13:50:07;;;;;;;16.32;4.50;;;;;;;20.70;63.21;99943.66;2123466;83;28311;-62
2022/10/24 13:53:24;;;;;;;11.80;3.50;;;;;;;20.59;62.91;99938.43;2134851;82;32111;-62
2022/10/24 13:56:27;;;;;;;7.30;3.58;;;;;;;20.49;63.34;99947.50;2157732;82;33804;-63
2022/10/24 13:59:37;;;;;;;12.00;3.83;;;;;;;20.43;63.50;99938.56;2157950;82;29400;-64
2022/10/24 14:02:41;;;;;;;13.03;3.70;;;;;;;20.38;63.68;99953.11;2157743;82;28179;-68
2022/10/24 14:05:48;;;;;;;7.75;4.08;;;;;;;20.35;63.82;99960.23;2157548;82;28691;-69
2022/10/24 14:08:51;;;;;;;10.43;3.77;;;;;;;20.31;63.92;99965.61;2157791;82;31000;-69
2022/10/24 14:11:55;;;;;;;10.23;5.10;;;;;;;20.31;64.15;99972.41;2157638;82;33627;-68
2022/10/24 14:14:59;;;;;;;6.27;3.33;;;;;;;20.27;64.09;99970.47;2157875;82;29506;-70
2022/10/24 14:18:13;;;;;;;8.13;3.62;;;;;;;20.24;64.08;99981.67;2158025;82;27713;-69
2022/10/24 14:21:19;;;;;;;14.63;4.12;;;;;;;20.19;64.11;99969.00;2157782;82;28917;-64
2022/10/24 14:24:22;;;;;;;10.95;3.92;;;;;;;20.13;63.92;99973.17;2158719;82;31289;-69